sensor_id;sensor_type;location;lat;lon;timestamp;pressure;altitude;pressure_sealevel;temperature;humidity
23679;BME280;12016;51.668;6.874;2023-03-03T00:01:12;102137.56;;;6.13;61.59
23679;BME280;12016;51.668;6.874;2023-03-03T00:07:16;102094.84;;;5.96;61.41
23679;BME280;12016;51.668;6.874;2023-03-03T00:13:25;102117.16;;;6.06;61.63
23679;BME280;12016;51.668;6.874;2023-03-03T00:19:37;102015.81;;;5.45;61.73
23679;BME280;12016;51.668;6.874;2023-03-03T00:25:42;102113.19;;;6.09;61.73
23679;BME280;12016;51.668;6.874;2023-03-03T00:31:45;102041.88;;;5.76;61.32
23679;BME280;12016;51.668;6.874;2023-03-03T00:37:47;102129.63;;;6.18;61.77
23679;BME280;12016;51.668;6.874;2023-03-03T00:43:51;101601.00;;;2.76;61.54
23679;BME280;12016;51.668;6.874;2023-03-03T00:50:32;102126.41;;;5.99;61.88
23679;BME280;12016;51.668;6.874;2023-03-03T00:56:34;102138.84;;;5.88;61.62
23679;BME280;12016;51.668;6.874;2023-03-03T01:02:37;101717.22;;;3.15;61.69
23679;BME280;12016;51.668;6.874;2023-03-03T01:08:39;102085.78;;;5.42;61.97
23679;BME280;12016;51.668;6.874;2023-03-03T01:14:41;102149.19;;;5.85;61.42
23679;BME280;12016;51.668;6.874;2023-03-03T01:20:43;102140.22;;;5.91;61.72
23679;BME280;12016;51.668;6.874;2023-03-03T01:26:45;102137.63;;;5.96;61.20
23679;BME280;12016;51.668;6.874;2023-03-03T01:32:47;102154.00;;;5.66;61.54
23679;BME280;12016;51.668;6.874;2023-03-03T01:38:49;101959.00;;;4.60;61.35
23679;BME280;12016;51.668;6.874;2023-03-03T01:45:12;102124.34;;;5.84;61.69
23679;BME280;12016;51.668;6.874;2023-03-03T01:57:26;102132.75;;;5.76;61.67
23679;BME280;12016;51.668;6.874;2023-03-03T02:03:30;102126.22;;;5.67;61.40
23679;BME280;12016;51.668;6.874;2023-03-03T02:09:48;102138.84;;;5.71;61.58
23679;BME280;12016;51.668;6.874;2023-03-03T02:15:55;101807.25;;;3.64;61.71
23679;BME280;12016;51.668;6.874;2023-03-03T02:21:58;101798.94;;;3.43;62.21
23679;BME280;12016;51.668;6.874;2023-03-03T02:28:03;102052.09;;;5.07;61.95
23679;BME280;12016;51.668;6.874;2023-03-03T02:34:05;102015.75;;;4.56;61.73
23679;BME280;12016;51.668;6.874;2023-03-03T02:40:08;101909.59;;;4.08;62.19
23679;BME280;12016;51.668;6.874;2023-03-03T02:46:11;102196.59;;;5.39;62.22
23679;BME280;12016;51.668;6.874;2023-03-03T02:52:13;102141.78;;;5.36;62.31
23679;BME280;12016;51.668;6.874;2023-03-03T02:58:19;102053.88;;;4.85;62.51
23679;BME280;12016;51.668;6.874;2023-03-03T03:04:23;102074.16;;;4.69;62.89
23679;BME280;12016;51.668;6.874;2023-03-03T03:10:27;101911.03;;;3.70;62.36
23679;BME280;12016;51.668;6.874;2023-03-03T03:16:29;102130.78;;;5.16;62.95
23679;BME280;12016;51.668;6.874;2023-03-03T03:22:33;101710.13;;;2.64;62.68
23679;BME280;12016;51.668;6.874;2023-03-03T03:28:36;102165.78;;;5.31;62.92
23679;BME280;12016;51.668;6.874;2023-03-03T03:34:39;102092.25;;;4.79;63.35
23679;BME280;12016;51.668;6.874;2023-03-03T03:40:42;102161.28;;;5.20;63.52
23679;BME280;12016;51.668;6.874;2023-03-03T03:46:44;102164.75;;;5.21;63.34
23679;BME280;12016;51.668;6.874;2023-03-03T03:52:46;102098.69;;;4.83;63.18
23679;BME280;12016;51.668;6.874;2023-03-03T03:58:48;102164.94;;;5.14;63.18
23679;BME280;12016;51.668;6.874;2023-03-03T04:04:51;102170.28;;;5.14;63.24
23679;BME280;12016;51.668;6.874;2023-03-03T04:10:52;102165.00;;;5.02;63.33
23679;BME280;12016;51.668;6.874;2023-03-03T04:16:55;102151.19;;;5.06;63.14
23679;BME280;12016;51.668;6.874;2023-03-03T04:22:58;102163.72;;;5.05;62.75
23679;BME280;12016;51.668;6.874;2023-03-03T04:29:00;102035.13;;;4.06;62.82
23679;BME280;12016;51.668;6.874;2023-03-03T04:35:03;102116.88;;;4.41;63.05
23679;BME280;12016;51.668;6.874;2023-03-03T04:41:12;101989.84;;;4.23;62.79
23679;BME280;12016;51.668;6.874;2023-03-03T04:47:15;102195.78;;;5.22;62.36
23679;BME280;12016;51.668;6.874;2023-03-03T04:53:16;101942.38;;;3.80;62.70
23679;BME280;12016;51.668;6.874;2023-03-03T04:59:18;102164.06;;;5.25;62.55
23679;BME280;12016;51.668;6.874;2023-03-03T05:05:20;102092.78;;;4.81;62.48
23679;BME280;12016;51.668;6.874;2023-03-03T05:11:22;102173.28;;;5.34;62.51
23679;BME280;12016;51.668;6.874;2023-03-03T05:17:24;102081.31;;;4.80;62.11
23679;BME280;12016;51.668;6.874;2023-03-03T05:23:26;101718.59;;;2.49;62.31
23679;BME280;12016;51.668;6.874;2023-03-03T05:29:28;102174.50;;;5.27;62.70
23679;BME280;12016;51.668;6.874;2023-03-03T05:35:33;102167.88;;;5.29;62.51
23679;BME280;12016;51.668;6.874;2023-03-03T05:41:35;101650.28;;;1.75;62.27
23679;BME280;12016;51.668;6.874;2023-03-03T05:47:37;102185.53;;;5.30;62.89
23679;BME280;12016;51.668;6.874;2023-03-03T05:53:39;101542.75;;;0.73;62.21
23679;BME280;12016;51.668;6.874;2023-03-03T05:59:41;101984.41;;;4.18;62.71
23679;BME280;12016;51.668;6.874;2023-03-03T06:05:42;102097.06;;;4.82;63.23
23679;BME280;12016;51.668;6.874;2023-03-03T06:11:44;101760.88;;;2.63;61.97
23679;BME280;12016;51.668;6.874;2023-03-03T06:17:46;101976.28;;;3.96;62.48
23679;BME280;12016;51.668;6.874;2023-03-03T06:23:48;102119.47;;;4.81;62.47
23679;BME280;12016;51.668;6.874;2023-03-03T06:29:50;102147.03;;;4.70;62.13
23679;BME280;12016;51.668;6.874;2023-03-03T06:35:53;102213.00;;;5.14;62.73
23679;BME280;12016;51.668;6.874;2023-03-03T06:41:55;102176.31;;;5.10;62.56
23679;BME280;12016;51.668;6.874;2023-03-03T06:47:57;102078.47;;;4.42;62.64
23679;BME280;12016;51.668;6.874;2023-03-03T06:54:13;102224.59;;;5.36;62.58
23679;BME280;12016;51.668;6.874;2023-03-03T07:06:24;102189.16;;;4.96;62.08
23679;BME280;12016;51.668;6.874;2023-03-03T07:12:29;102249.34;;;5.44;62.64
23679;BME280;12016;51.668;6.874;2023-03-03T07:18:39;102254.28;;;5.52;62.41
23679;BME280;12016;51.668;6.874;2023-03-03T07:24:49;102257.41;;;5.49;62.65
23679;BME280;12016;51.668;6.874;2023-03-03T07:30:55;102225.59;;;5.30;62.67
23679;BME280;12016;51.668;6.874;2023-03-03T07:37:01;102271.94;;;5.53;62.87
23679;BME280;12016;51.668;6.874;2023-03-03T07:49:35;102154.75;;;4.83;62.23
23679;BME280;12016;51.668;6.874;2023-03-03T07:55:38;102290.91;;;5.68;62.11
23679;BME280;12016;51.668;6.874;2023-03-03T08:01:43;102296.50;;;5.66;61.65
23679;BME280;12016;51.668;6.874;2023-03-03T08:07:49;102192.56;;;4.91;61.71
23679;BME280;12016;51.668;6.874;2023-03-03T08:13:51;102114.16;;;4.24;61.85
23679;BME280;12016;51.668;6.874;2023-03-03T08:19:53;102147.75;;;4.65;61.29
23679;BME280;12016;51.668;6.874;2023-03-03T08:25:55;102225.81;;;5.29;61.54
23679;BME280;12016;51.668;6.874;2023-03-03T08:31:57;102240.47;;;5.26;61.11
23679;BME280;12016;51.668;6.874;2023-03-03T08:37:59;102311.84;;;5.59;61.68
23679;BME280;12016;51.668;6.874;2023-03-03T08:44:01;102395.88;;;5.92;61.23
23679;BME280;12016;51.668;6.874;2023-03-03T08:50:04;102328.56;;;5.38;62.81
23679;BME280;12016;51.668;6.874;2023-03-03T08:56:06;102176.47;;;4.46;62.01
23679;BME280;12016;51.668;6.874;2023-03-03T09:02:08;102331.78;;;5.52;61.99
23679;BME280;12016;51.668;6.874;2023-03-03T09:08:10;102328.53;;;5.50;61.70
23679;BME280;12016;51.668;6.874;2023-03-03T09:14:14;102293.91;;;5.26;61.80
23679;BME280;12016;51.668;6.874;2023-03-03T09:20:37;101836.75;;;2.30;61.59
23679;BME280;12016;51.668;6.874;2023-03-03T09:26:45;101914.19;;;3.15;61.16
23679;BME280;12016;51.668;6.874;2023-03-03T09:32:47;102356.00;;;5.90;60.85
23679;BME280;12016;51.668;6.874;2023-03-03T09:38:49;102357.22;;;5.99;60.98
23679;BME280;12016;51.668;6.874;2023-03-03T09:57:17;102272.13;;;5.80;59.43
23679;BME280;12016;51.668;6.874;2023-03-03T10:22:55;102372.28;;;6.72;59.17
23679;BME280;12016;51.668;6.874;2023-03-03T10:41:52;102051.44;;;4.83;58.76
23679;BME280;12016;51.668;6.874;2023-03-03T10:48:16;102375.50;;;7.35;57.32
23679;BME280;12016;51.668;6.874;2023-03-03T10:54:54;102382.59;;;7.46;57.18
23679;BME280;12016;51.668;6.874;2023-03-03T11:01:35;102376.09;;;7.64;57.88
23679;BME280;12016;51.668;6.874;2023-03-03T11:07:43;102279.16;;;6.74;57.71
23679;BME280;12016;51.668;6.874;2023-03-03T11:20:41;102363.13;;;7.82;57.13
23679;BME280;12016;51.668;6.874;2023-03-03T11:26:33;102372.19;;;8.03;55.99
23679;BME280;12016;51.668;6.874;2023-03-03T11:32:48;102367.78;;;8.24;56.13
23679;BME280;12016;51.668;6.874;2023-03-03T11:39:07;102156.34;;;7.15;56.00
23679;BME280;12016;51.668;6.874;2023-03-03T11:45:17;102344.72;;;9.17;54.66
23679;BME280;12016;51.668;6.874;2023-03-03T11:57:45;101925.44;;;18.50;33.78
23679;BME280;12016;51.668;6.874;2023-03-03T12:04:19;102302.28;;;26.35;24.81
23679;BME280;12016;51.668;6.874;2023-03-03T12:10:28;102305.38;;;28.99;21.08
23679;BME280;12016;51.668;6.874;2023-03-03T12:16:41;102303.16;;;30.63;19.22
23679;BME280;12016;51.668;6.874;2023-03-03T12:23:30;102216.06;;;31.57;16.91
23679;BME280;12016;51.668;6.874;2023-03-03T12:30:05;102298.50;;;30.01;17.92
23679;BME280;12016;51.668;6.874;2023-03-03T12:36:34;102100.94;;;24.90;20.77
23679;BME280;12016;51.668;6.874;2023-03-03T12:48:48;101882.72;;;22.19;23.52
23679;BME280;12016;51.668;6.874;2023-03-03T13:07:38;102274.19;;;28.20;19.72
23679;BME280;12016;51.668;6.874;2023-03-03T13:13:56;102274.13;;;27.60;20.26
23679;BME280;12016;51.668;6.874;2023-03-03T13:20:14;102063.53;;;24.55;21.07
23679;BME280;12016;51.668;6.874;2023-03-03T13:26:39;102259.28;;;24.92;22.15
23679;BME280;12016;51.668;6.874;2023-03-03T13:39:22;102278.63;;;24.20;23.47
23679;BME280;12016;51.668;6.874;2023-03-03T13:45:35;102249.91;;;23.53;24.05
23679;BME280;12016;51.668;6.874;2023-03-03T13:51:41;102246.03;;;23.77;24.11
23679;BME280;12016;51.668;6.874;2023-03-03T14:10:30;102011.94;;;19.88;27.86
23679;BME280;12016;51.668;6.874;2023-03-03T14:16:49;102058.13;;;23.76;23.08
23679;BME280;12016;51.668;6.874;2023-03-03T14:22:57;102208.13;;;24.95;22.41
23679;BME280;12016;51.668;6.874;2023-03-03T14:35:32;102223.16;;;22.41;25.92
23679;BME280;12016;51.668;6.874;2023-03-03T14:41:40;102157.69;;;20.78;27.84
23679;BME280;12016;51.668;6.874;2023-03-03T14:47:44;102219.19;;;22.74;25.81
23679;BME280;12016;51.668;6.874;2023-03-03T14:53:47;102157.78;;;23.43;25.15
23679;BME280;12016;51.668;6.874;2023-03-03T15:06:03;102068.53;;;24.16;23.20
23679;BME280;12016;51.668;6.874;2023-03-03T15:32:15;102185.72;;;24.14;24.40
23679;BME280;12016;51.668;6.874;2023-03-03T15:38:39;102183.06;;;22.21;26.53
23679;BME280;12016;51.668;6.874;2023-03-03T15:44:51;102170.56;;;20.13;29.28
23679;BME280;12016;51.668;6.874;2023-03-03T16:03:46;102160.13;;;16.75;35.29
23679;BME280;12016;51.668;6.874;2023-03-03T16:10:23;102037.53;;;15.24;36.22
23679;BME280;12016;51.668;6.874;2023-03-03T16:22:59;102133.53;;;14.70;38.63
23679;BME280;12016;51.668;6.874;2023-03-03T16:42:27;102165.47;;;13.12;41.58
23679;BME280;12016;51.668;6.874;2023-03-03T16:48:44;102054.13;;;11.97;41.75
23679;BME280;12016;51.668;6.874;2023-03-03T16:55:20;102176.13;;;12.47;42.49
23679;BME280;12016;51.668;6.874;2023-03-03T17:08:15;102181.06;;;11.97;44.33
23679;BME280;12016;51.668;6.874;2023-03-03T17:14:34;102185.94;;;11.66;45.30
23679;BME280;12016;51.668;6.874;2023-03-03T17:20:50;102194.69;;;11.53;45.66
23679;BME280;12016;51.668;6.874;2023-03-03T17:33:50;102202.84;;;11.09;46.49
23679;BME280;12016;51.668;6.874;2023-03-03T17:46:32;102214.16;;;10.62;47.54
23679;BME280;12016;51.668;6.874;2023-03-03T18:05:47;102228.53;;;10.27;47.86
23679;BME280;12016;51.668;6.874;2023-03-03T18:18:25;102233.97;;;9.51;48.97
23679;BME280;12016;51.668;6.874;2023-03-03T18:24:38;102233.19;;;9.65;48.11
23679;BME280;12016;51.668;6.874;2023-03-03T18:30:58;101934.75;;;7.83;47.30
23679;BME280;12016;51.668;6.874;2023-03-03T18:37:36;102234.28;;;9.59;48.13
23679;BME280;12016;51.668;6.874;2023-03-03T18:49:55;102245.03;;;9.44;47.57
23679;BME280;12016;51.668;6.874;2023-03-03T18:55:59;102243.91;;;9.35;48.15
23679;BME280;12016;51.668;6.874;2023-03-03T19:08:23;102247.97;;;9.38;48.81
23679;BME280;12016;51.668;6.874;2023-03-03T19:14:35;102074.63;;;8.12;48.62
23679;BME280;12016;51.668;6.874;2023-03-03T19:20:42;102258.44;;;9.29;48.44
23679;BME280;12016;51.668;6.874;2023-03-03T20:05:21;102261.56;;;8.90;50.19
23679;BME280;12016;51.668;6.874;2023-03-03T20:37:38;102197.31;;;7.74;51.63
23679;BME280;12016;51.668;6.874;2023-03-03T20:50:08;101958.88;;;6.09;52.48
23679;BME280;12016;51.668;6.874;2023-03-03T20:56:22;102082.66;;;7.12;51.56
23679;BME280;12016;51.668;6.874;2023-03-03T21:02:36;102075.97;;;7.15;51.54
23679;BME280;12016;51.668;6.874;2023-03-03T21:15:00;102288.44;;;8.38;52.39
23679;BME280;12016;51.668;6.874;2023-03-03T21:21:03;102270.34;;;8.23;52.28
23679;BME280;12016;51.668;6.874;2023-03-03T21:27:23;102272.25;;;8.28;52.24
23679;BME280;12016;51.668;6.874;2023-03-03T21:39:46;102269.22;;;8.19;52.84
23679;BME280;12016;51.668;6.874;2023-03-03T21:45:48;101891.25;;;5.65;53.08
23679;BME280;12016;51.668;6.874;2023-03-03T21:51:50;102270.72;;;7.63;53.39
23679;BME280;12016;51.668;6.874;2023-03-03T21:57:52;102177.72;;;7.37;53.50
23679;BME280;12016;51.668;6.874;2023-03-03T22:03:53;102281.97;;;7.97;53.38
23679;BME280;12016;51.668;6.874;2023-03-03T22:09:55;101836.09;;;5.06;54.06
23679;BME280;12016;51.668;6.874;2023-03-03T22:15:57;102244.16;;;7.67;53.93
23679;BME280;12016;51.668;6.874;2023-03-03T22:22:01;102114.88;;;6.91;54.02
23679;BME280;12016;51.668;6.874;2023-03-03T22:28:03;101775.09;;;4.76;53.89
23679;BME280;12016;51.668;6.874;2023-03-03T22:34:04;102233.28;;;7.78;53.47
23679;BME280;12016;51.668;6.874;2023-03-03T22:40:06;101731.78;;;4.68;53.77
23679;BME280;12016;51.668;6.874;2023-03-03T22:46:09;101834.75;;;5.30;54.16
23679;BME280;12016;51.668;6.874;2023-03-03T22:52:11;102272.84;;;7.98;53.63
23679;BME280;12016;51.668;6.874;2023-03-03T22:58:13;102166.44;;;7.35;54.83
23679;BME280;12016;51.668;6.874;2023-03-03T23:04:15;101733.78;;;4.18;54.45
23679;BME280;12016;51.668;6.874;2023-03-03T23:10:18;102217.88;;;7.64;54.40
23679;BME280;12016;51.668;6.874;2023-03-03T23:16:21;102245.16;;;7.87;54.68
23679;BME280;12016;51.668;6.874;2023-03-03T23:22:23;101783.59;;;4.94;54.33
23679;BME280;12016;51.668;6.874;2023-03-03T23:28:25;102160.09;;;7.14;54.91
23679;BME280;12016;51.668;6.874;2023-03-03T23:34:26;102076.13;;;6.71;55.08
23679;BME280;12016;51.668;6.874;2023-03-03T23:40:28;102260.91;;;7.79;55.56
23679;BME280;12016;51.668;6.874;2023-03-03T23:46:30;102188.69;;;7.35;56.10
23679;BME280;12016;51.668;6.874;2023-03-03T23:52:35;101889.53;;;5.54;54.78
23679;BME280;12016;51.668;6.874;2023-03-03T23:58:40;102281.38;;;7.90;54.91
